createdAt,value
2022-07-29T00:01:54.854Z,18.70
2022-07-29T00:04:22.162Z,18.70
2022-07-29T00:06:49.064Z,18.70
2022-07-29T00:09:15.722Z,18.70
2022-07-29T00:11:42.675Z,18.50
2022-07-29T00:14:10.503Z,18.60
2022-07-29T00:16:37.284Z,18.60
2022-07-29T00:19:04.474Z,18.50
2022-07-29T00:21:31.143Z,18.40
2022-07-29T00:23:57.873Z,18.50
2022-07-29T00:26:24.597Z,18.50
2022-07-29T00:28:51.255Z,18.50
2022-07-29T00:31:17.979Z,18.50
2022-07-29T00:33:44.734Z,18.50
2022-07-29T00:36:11.378Z,18.60
2022-07-29T00:38:45.176Z,18.60
2022-07-29T00:41:12.832Z,18.60
2022-07-29T00:43:39.514Z,18.60
2022-07-29T00:46:06.319Z,18.60
2022-07-29T00:48:32.984Z,18.60
2022-07-29T00:51:00.692Z,18.70
2022-07-29T00:53:27.754Z,18.70
2022-07-29T00:55:54.991Z,18.60
2022-07-29T00:58:22.717Z,18.60
2022-07-29T01:00:49.616Z,18.60
2022-07-29T01:03:16.383Z,18.50
2022-07-29T01:05:50.244Z,18.60
2022-07-29T01:08:18.564Z,18.60
2022-07-29T01:10:46.690Z,18.70
2022-07-29T01:13:14.465Z,18.80
2022-07-29T01:15:49.402Z,18.80
2022-07-29T01:18:39.780Z,18.80
2022-07-29T01:21:26.725Z,18.80
2022-07-29T01:24:00.303Z,18.80
2022-07-29T01:26:36.212Z,18.70
2022-07-29T01:29:07.484Z,18.70
2022-07-29T01:31:59.366Z,18.70
2022-07-29T01:34:35.651Z,18.70
2022-07-29T01:37:09.340Z,18.70
2022-07-29T01:39:37.381Z,18.70
2022-07-29T01:42:10.816Z,18.70
2022-07-29T01:44:40.873Z,18.60
2022-07-29T01:47:12.650Z,18.50
2022-07-29T01:49:42.003Z,18.40
2022-07-29T01:52:11.759Z,18.40
2022-07-29T01:54:40.087Z,18.40
2022-07-29T01:57:08.963Z,18.30
2022-07-29T01:59:36.493Z,18.20
2022-07-29T02:02:03.375Z,18.10
2022-07-29T02:04:31.196Z,18.00
2022-07-29T02:07:02.827Z,17.90
2022-07-29T02:09:30.372Z,17.90
2022-07-29T02:11:57.670Z,17.80
2022-07-29T02:14:25.493Z,17.80
2022-07-29T02:16:54.675Z,17.70
2022-07-29T02:19:23.300Z,17.60
2022-07-29T02:21:52.345Z,17.60
2022-07-29T02:24:19.727Z,17.60
2022-07-29T02:26:46.953Z,17.50
2022-07-29T02:29:15.895Z,17.50
2022-07-29T02:31:44.545Z,17.40
2022-07-29T02:34:11.707Z,17.40
2022-07-29T02:36:38.726Z,17.30
2022-07-29T02:39:05.780Z,17.20
2022-07-29T02:41:39.448Z,17.20
2022-07-29T02:44:08.482Z,17.20
2022-07-29T02:46:36.676Z,17.10
2022-07-29T02:49:18.799Z,17.10
2022-07-29T02:52:02.561Z,17.00
2022-07-29T02:54:29.245Z,17.00
2022-07-29T02:56:58.431Z,16.90
2022-07-29T02:59:27.538Z,16.90
2022-07-29T03:01:55.449Z,17.00
2022-07-29T03:04:23.726Z,16.90
2022-07-29T03:06:51.695Z,16.90
2022-07-29T03:09:18.622Z,16.90
2022-07-29T03:11:49.152Z,16.90
2022-07-29T03:14:18.848Z,16.80
2022-07-29T03:16:46.140Z,16.70
2022-07-29T03:19:12.991Z,16.70
2022-07-29T03:21:39.800Z,16.60
2022-07-29T03:24:12.163Z,16.60
2022-07-29T03:26:38.846Z,16.60
2022-07-29T03:29:05.541Z,16.50
2022-07-29T03:31:33.496Z,16.50
2022-07-29T03:34:00.400Z,16.50
2022-07-29T03:36:27.059Z,16.40
2022-07-29T03:38:53.824Z,16.40
2022-07-29T03:41:22.435Z,16.30
2022-07-29T03:43:50.691Z,16.20
2022-07-29T03:46:18.068Z,16.20
2022-07-29T03:48:47.942Z,16.20
2022-07-29T03:51:15.105Z,16.20
2022-07-29T03:53:41.791Z,16.20
2022-07-29T03:56:09.954Z,16.20
2022-07-29T03:58:36.892Z,16.20
2022-07-29T04:01:03.836Z,16.20
2022-07-29T04:03:30.621Z,16.40
2022-07-29T04:06:01.358Z,16.50
2022-07-29T04:08:28.064Z,16.70
2022-07-29T04:10:54.794Z,16.80
2022-07-29T04:13:21.644Z,16.90
2022-07-29T04:15:48.467Z,17.10
2022-07-29T04:18:15.295Z,17.50
2022-07-29T04:20:41.970Z,18.20
2022-07-29T04:23:08.643Z,18.40
2022-07-29T04:25:37.864Z,18.20
2022-07-29T04:28:04.708Z,18.00
2022-07-29T04:30:32.254Z,17.90
2022-07-29T04:32:59.090Z,18.20
2022-07-29T04:35:25.796Z,19.30
2022-07-29T04:37:52.648Z,20.70
2022-07-29T04:40:19.460Z,21.70
2022-07-29T04:42:47.227Z,21.60
2022-07-29T04:45:14.881Z,21.00
2022-07-29T04:47:43.010Z,20.50
2022-07-29T04:50:10.079Z,20.10
2022-07-29T04:52:37.005Z,19.90
2022-07-29T04:55:04.385Z,20.40
2022-07-29T04:57:31.140Z,22.20
2022-07-29T04:59:57.930Z,23.70
2022-07-29T05:02:24.832Z,23.90
2022-07-29T05:04:51.610Z,23.40
2022-07-29T05:07:18.325Z,22.80
2022-07-29T05:09:45.032Z,22.40
2022-07-29T05:12:12.862Z,22.40
2022-07-29T05:14:39.626Z,22.70
2022-07-29T05:17:06.405Z,23.10
2022-07-29T05:19:33.123Z,23.80
2022-07-29T05:22:00.976Z,24.10
2022-07-29T05:24:27.747Z,23.80
2022-07-29T05:26:54.419Z,23.30
2022-07-29T05:29:43.770Z,23.40
2022-07-29T05:32:08.069Z,24.00
2022-07-29T05:34:34.811Z,25.70
2022-07-29T05:37:01.593Z,27.20
2022-07-29T05:39:47.359Z,28.20
2022-07-29T05:42:14.941Z,29.20
2022-07-29T05:44:41.613Z,30.40
2022-07-29T05:47:08.332Z,29.50
2022-07-29T05:49:35.029Z,28.20
2022-07-29T05:52:01.734Z,26.80
2022-07-29T05:54:28.375Z,25.80
2022-07-29T05:56:55.051Z,24.80
2022-07-29T05:59:23.423Z,24.40
2022-07-29T06:01:52.860Z,24.10
2022-07-29T06:04:20.225Z,24.50
2022-07-29T06:06:47.406Z,25.40
2022-07-29T06:09:14.845Z,25.90
2022-07-29T06:11:41.606Z,27.10
2022-07-29T06:14:08.301Z,28.20
2022-07-29T06:16:34.994Z,28.60
2022-07-29T06:19:01.741Z,28.00
2022-07-29T06:21:28.354Z,27.30
2022-07-29T06:23:55.086Z,26.40
2022-07-29T06:26:30.907Z,26.30
2022-07-29T06:28:58.216Z,26.80
2022-07-29T06:31:24.976Z,26.80
2022-07-29T06:33:51.729Z,27.40
2022-07-29T06:36:21.709Z,27.20
2022-07-29T06:38:52.021Z,26.30
2022-07-29T06:41:19.204Z,26.60
2022-07-29T06:43:51.879Z,28.20
2022-07-29T06:46:21.850Z,29.20
2022-07-29T06:48:49.197Z,30.70
2022-07-29T06:51:17.124Z,32.20
2022-07-29T06:54:01.563Z,33.20
2022-07-29T06:56:39.026Z,34.00
2022-07-29T06:59:06.718Z,33.80
2022-07-29T07:01:33.506Z,32.40
2022-07-29T07:04:00.248Z,32.40
2022-07-29T07:06:27.076Z,32.60
2022-07-29T07:08:53.852Z,32.70
2022-07-29T07:11:20.619Z,32.50
2022-07-29T07:13:47.393Z,32.00
2022-07-29T07:16:14.173Z,33.00
2022-07-29T07:18:40.933Z,33.60
2022-07-29T07:21:07.716Z,35.10
2022-07-29T07:23:34.513Z,34.00
2022-07-29T07:26:01.230Z,33.80
2022-07-29T07:28:27.973Z,33.00
2022-07-29T07:30:54.658Z,33.70
2022-07-29T07:33:21.362Z,33.00
2022-07-29T07:35:48.202Z,31.40
2022-07-29T07:38:14.856Z,30.50
2022-07-29T07:40:41.744Z,30.50
2022-07-29T07:43:08.435Z,31.70
2022-07-29T07:45:35.394Z,32.80
2022-07-29T07:48:02.181Z,33.50
2022-07-29T07:50:28.899Z,34.80
2022-07-29T07:52:58.730Z,32.90
2022-07-29T07:55:26.574Z,31.10
2022-07-29T07:57:53.627Z,30.30
2022-07-29T08:00:23.131Z,29.10
2022-07-29T08:02:51.151Z,28.90
2022-07-29T08:05:18.622Z,29.00
2022-07-29T08:07:46.557Z,30.90
2022-07-29T08:10:13.963Z,32.90
2022-07-29T08:12:40.839Z,33.60
2022-07-29T08:15:08.661Z,33.20
2022-07-29T08:17:35.648Z,33.00
2022-07-29T08:20:02.473Z,32.80
2022-07-29T08:22:29.741Z,34.00
2022-07-29T08:24:57.147Z,34.40
2022-07-29T08:27:42.887Z,34.40
2022-07-29T08:30:11.353Z,34.50
2022-07-29T08:32:53.094Z,34.00
2022-07-29T08:35:20.649Z,33.90
2022-07-29T08:37:47.365Z,33.60
2022-07-29T08:40:15.155Z,33.20
2022-07-29T08:42:41.859Z,32.90
2022-07-29T08:45:08.916Z,32.80
2022-07-29T08:47:39.542Z,32.70
2022-07-29T08:50:06.997Z,32.40
2022-07-29T08:52:36.927Z,32.10
2022-07-29T08:55:04.100Z,31.70
2022-07-29T08:57:31.197Z,31.70
2022-07-29T09:00:06.230Z,31.70
2022-07-29T09:02:40.157Z,31.90
2022-07-29T09:05:07.247Z,31.80
2022-07-29T09:07:35.459Z,30.50
2022-07-29T09:10:02.380Z,30.10
2022-07-29T09:12:32.724Z,30.30
2022-07-29T09:15:01.547Z,30.30
2022-07-29T09:17:56.307Z,30.40
2022-07-29T09:20:24.107Z,30.60
2022-07-29T09:22:53.680Z,31.00
2022-07-29T09:25:39.936Z,30.80
2022-07-29T09:28:10.333Z,31.10
2022-07-29T09:30:52.090Z,31.50
2022-07-29T09:33:19.298Z,31.70
2022-07-29T09:35:57.088Z,32.00
2022-07-29T09:38:24.530Z,32.50
2022-07-29T09:40:57.960Z,32.70
2022-07-29T09:43:32.388Z,32.50
2022-07-29T09:46:12.354Z,31.80
2022-07-29T09:48:39.214Z,32.20
2022-07-29T09:51:07.465Z,32.00
2022-07-29T09:53:38.431Z,31.60
2022-07-29T09:56:05.864Z,32.00
2022-07-29T09:58:34.686Z,32.20
2022-07-29T10:01:01.541Z,32.40
2022-07-29T10:03:28.450Z,32.20
2022-07-29T10:06:08.251Z,32.40
2022-07-29T10:08:35.281Z,32.10
2022-07-29T10:11:10.225Z,31.90
2022-07-29T10:13:37.101Z,32.10
2022-07-29T10:16:03.915Z,31.80
2022-07-29T10:18:31.051Z,32.00
2022-07-29T10:20:57.858Z,32.00
2022-07-29T10:23:24.952Z,32.40
2022-07-29T10:25:51.660Z,32.30
2022-07-29T10:28:18.596Z,32.60
2022-07-29T10:30:46.501Z,32.40
2022-07-29T10:33:28.277Z,32.10
2022-07-29T10:36:05.879Z,32.00
2022-07-29T10:38:45.631Z,32.30
2022-07-29T10:41:29.032Z,32.50
2022-07-29T10:44:17.121Z,32.50
2022-07-29T10:46:44.770Z,32.40
2022-07-29T10:49:15.439Z,32.50
2022-07-29T10:51:51.199Z,31.90
2022-07-29T10:54:18.398Z,31.90
2022-07-29T10:56:45.147Z,32.10
2022-07-29T10:59:20.117Z,31.90
2022-07-29T11:01:52.467Z,31.80
2022-07-29T11:04:38.794Z,31.80
2022-07-29T11:07:05.447Z,31.60
2022-07-29T11:09:37.594Z,31.10
2022-07-29T11:12:25.291Z,31.10
2022-07-29T11:14:53.305Z,31.40
2022-07-29T11:17:20.433Z,31.40
2022-07-29T11:19:52.053Z,31.60
2022-07-29T11:22:34.894Z,31.50
2022-07-29T11:25:14.745Z,31.40
2022-07-29T11:27:43.906Z,31.20
2022-07-29T11:30:13.152Z,30.60
2022-07-29T11:32:44.567Z,30.50
2022-07-29T11:38:18.827Z,30.60
2022-07-29T11:41:07.865Z,30.80
2022-07-29T11:43:50.607Z,30.60
2022-07-29T11:46:25.077Z,30.40
2022-07-29T11:48:52.645Z,29.90
2022-07-29T11:51:19.489Z,29.60
2022-07-29T11:54:04.125Z,29.20
2022-07-29T11:56:32.568Z,29.10
2022-07-29T12:02:12.086Z,27.90
2022-07-29T12:04:51.431Z,26.90
2022-07-29T12:07:01.566Z,30.60
2022-07-29T12:07:19.287Z,26.40
2022-07-29T12:09:56.938Z,25.80
2022-07-29T12:12:24.453Z,25.60
2022-07-29T12:14:51.351Z,25.30
2022-07-29T12:17:34.246Z,25.50
2022-07-29T12:20:04.636Z,25.60
2022-07-29T12:22:32.418Z,26.10
2022-07-29T12:25:31.845Z,26.40
2022-07-29T12:28:03.535Z,26.60
2022-07-29T12:30:39.620Z,26.40
2022-07-29T12:33:11.914Z,26.10
2022-07-29T12:35:39.074Z,26.10
2022-07-29T12:38:06.369Z,26.00
2022-07-29T12:40:33.044Z,25.90
2022-07-29T12:43:13.243Z,25.80
2022-07-29T12:45:40.923Z,25.60
2022-07-29T12:48:10.752Z,25.20
2022-07-29T12:50:52.137Z,24.90
2022-07-29T12:53:18.798Z,24.70
2022-07-29T12:55:49.900Z,24.60
2022-07-29T12:58:35.200Z,24.60
2022-07-29T13:01:17.098Z,24.70
2022-07-29T13:03:57.730Z,24.90
2022-07-29T13:06:41.153Z,25.00
2022-07-29T13:09:10.202Z,24.90
2022-07-29T13:11:57.204Z,24.70
2022-07-29T13:14:33.937Z,24.60
2022-07-29T13:17:02.773Z,24.40
2022-07-29T13:19:41.528Z,24.20
2022-07-29T13:22:09.256Z,24.00
2022-07-29T13:24:45.889Z,23.70
2022-07-29T13:27:12.582Z,23.70
2022-07-29T13:29:41.114Z,23.70
2022-07-29T13:32:08.403Z,23.70
2022-07-29T13:34:35.171Z,23.70
2022-07-29T13:37:01.856Z,23.70
2022-07-29T13:39:28.525Z,23.70
2022-07-29T13:41:56.448Z,23.60
2022-07-29T13:44:24.359Z,23.40
2022-07-29T13:46:51.020Z,23.50
2022-07-29T13:49:17.869Z,23.80
2022-07-29T13:51:44.602Z,24.10
2022-07-29T13:54:11.291Z,24.20
2022-07-29T13:56:37.977Z,24.50
2022-07-29T13:59:04.673Z,24.80
2022-07-29T14:01:31.869Z,25.10
2022-07-29T14:03:58.559Z,25.20
2022-07-29T14:06:25.279Z,25.00
2022-07-29T14:08:52.133Z,25.00
2022-07-29T14:11:18.975Z,25.00
2022-07-29T14:13:45.702Z,24.80
2022-07-29T14:16:12.561Z,24.60
2022-07-29T14:18:39.270Z,24.60
2022-07-29T14:21:06.019Z,24.50
2022-07-29T14:23:32.712Z,24.30
2022-07-29T14:25:59.367Z,24.10
2022-07-29T14:28:26.052Z,23.90
2022-07-29T14:30:52.751Z,23.70
2022-07-29T14:33:19.479Z,23.60
2022-07-29T14:35:46.250Z,23.50
2022-07-29T14:38:12.973Z,23.40
2022-07-29T14:40:39.693Z,23.40
2022-07-29T14:43:06.379Z,23.40
2022-07-29T14:45:33.216Z,23.50
2022-07-29T14:48:00.855Z,23.70
2022-07-29T14:50:31.995Z,23.80
2022-07-29T14:52:59.366Z,23.80
2022-07-29T14:55:26.099Z,23.90
2022-07-29T14:57:56.375Z,23.80
2022-07-29T15:00:27.473Z,23.80
2022-07-29T15:03:02.768Z,23.80
2022-07-29T15:05:30.299Z,23.90
2022-07-29T15:07:57.034Z,24.00
2022-07-29T15:10:24.735Z,24.10
2022-07-29T15:12:51.523Z,24.10
2022-07-29T15:15:18.260Z,24.20
2022-07-29T15:17:45.162Z,24.20
2022-07-29T15:20:12.734Z,24.20
2022-07-29T15:22:39.438Z,24.20
2022-07-29T15:25:06.484Z,24.20
2022-07-29T15:27:33.301Z,24.30
2022-07-29T15:29:59.988Z,24.20
2022-07-29T15:32:27.176Z,24.30
2022-07-29T15:34:53.843Z,24.30
2022-07-29T15:37:20.596Z,24.20
2022-07-29T15:39:47.270Z,24.30
2022-07-29T15:42:13.946Z,24.40
2022-07-29T15:44:43.808Z,24.40
2022-07-29T15:47:10.710Z,24.30
2022-07-29T15:49:47.666Z,24.30
2022-07-29T15:52:25.753Z,24.30
2022-07-29T15:54:56.566Z,24.30
2022-07-29T15:57:23.833Z,24.30
2022-07-29T15:59:50.659Z,24.20
2022-07-29T16:02:17.773Z,24.00
2022-07-29T16:04:44.667Z,23.90
2022-07-29T16:07:11.386Z,23.80
2022-07-29T16:09:38.168Z,23.80
2022-07-29T16:12:15.059Z,23.60
2022-07-29T16:14:45.261Z,23.70
2022-07-29T16:17:14.485Z,23.70
2022-07-29T16:19:42.412Z,23.80
2022-07-29T16:22:09.231Z,23.80
2022-07-29T16:24:35.966Z,23.80
2022-07-29T16:27:02.645Z,23.80
2022-07-29T16:29:29.434Z,23.70
2022-07-29T16:31:56.349Z,23.70
2022-07-29T16:34:23.134Z,23.70
2022-07-29T16:36:49.939Z,23.50
2022-07-29T16:39:16.630Z,23.70
2022-07-29T16:41:43.423Z,23.80
2022-07-29T16:44:10.178Z,23.90
2022-07-29T16:46:37.451Z,24.00
2022-07-29T16:49:05.811Z,24.00
2022-07-29T16:51:32.774Z,24.10
2022-07-29T16:53:59.428Z,24.20
2022-07-29T16:56:26.053Z,24.20
2022-07-29T16:58:52.737Z,24.10
2022-07-29T17:01:19.857Z,24.10
2022-07-29T17:04:05.220Z,24.10
2022-07-29T17:06:39.688Z,24.10
2022-07-29T17:09:07.401Z,24.20
2022-07-29T17:11:53.393Z,24.10
2022-07-29T17:14:23.347Z,24.10
2022-07-29T17:16:51.731Z,24.10
2022-07-29T17:19:31.618Z,24.20
2022-07-29T17:22:06.383Z,24.20
2022-07-29T17:24:35.953Z,24.10
2022-07-29T17:27:02.641Z,24.20
2022-07-29T17:29:29.354Z,24.00
2022-07-29T17:31:57.676Z,24.00
2022-07-29T17:34:24.331Z,24.00
2022-07-29T17:36:51.070Z,24.00
2022-07-29T17:39:17.759Z,23.90
2022-07-29T17:41:46.757Z,23.80
2022-07-29T17:44:13.560Z,23.80
2022-07-29T17:46:40.658Z,23.80
2022-07-29T17:49:07.493Z,23.70
2022-07-29T17:51:34.294Z,23.70
2022-07-29T17:54:01.071Z,23.70
2022-07-29T17:56:27.711Z,23.70
2022-07-29T17:58:54.485Z,23.60
2022-07-29T18:01:21.326Z,23.50
2022-07-29T18:03:48.201Z,23.50
2022-07-29T18:06:14.847Z,23.40
2022-07-29T18:08:41.586Z,23.40
2022-07-29T18:11:08.316Z,23.30
2022-07-29T18:13:41.673Z,23.20
2022-07-29T18:16:09.303Z,23.10
2022-07-29T18:18:36.082Z,23.00
2022-07-29T18:21:02.956Z,22.90
2022-07-29T18:23:29.636Z,22.80
2022-07-29T18:25:56.296Z,22.80
2022-07-29T18:28:23.087Z,22.80
2022-07-29T18:30:50.429Z,22.80
2022-07-29T18:33:21.394Z,22.70
2022-07-29T18:35:48.691Z,22.70
2022-07-29T18:38:15.487Z,22.70
2022-07-29T18:40:42.222Z,22.70
2022-07-29T18:43:09.196Z,22.60
2022-07-29T18:45:35.879Z,22.60
2022-07-29T18:48:08.464Z,22.50
2022-07-29T18:50:40.492Z,22.50
2022-07-29T18:53:07.627Z,22.30
2022-07-29T18:55:34.378Z,22.20
2022-07-29T18:58:01.058Z,22.10
2022-07-29T19:00:27.809Z,22.00
2022-07-29T19:02:54.637Z,22.00
2022-07-29T19:05:21.433Z,22.00
2022-07-29T19:07:48.136Z,21.80
2022-07-29T19:10:14.898Z,21.70
2022-07-29T19:12:42.391Z,21.50
2022-07-29T19:15:10.358Z,21.40
2022-07-29T19:17:37.073Z,21.20
2022-07-29T19:20:03.902Z,21.20
2022-07-29T19:22:31.099Z,21.20
2022-07-29T19:24:57.887Z,21.20
2022-07-29T19:27:25.849Z,21.00
2022-07-29T19:29:52.566Z,20.90
2022-07-29T19:32:24.543Z,20.80
2022-07-29T19:35:10.759Z,20.90
2022-07-29T19:37:37.560Z,20.90
2022-07-29T19:40:04.946Z,20.80
2022-07-29T19:42:31.651Z,20.80
2022-07-29T19:44:58.285Z,20.70
2022-07-29T19:47:24.970Z,20.50
2022-07-29T19:49:51.690Z,20.40
2022-07-29T19:52:18.351Z,20.30
2022-07-29T19:54:45.170Z,20.30
2022-07-29T19:57:11.870Z,20.30
2022-07-29T19:59:38.828Z,20.30
2022-07-29T20:02:05.878Z,20.30
2022-07-29T20:04:32.619Z,20.20
2022-07-29T20:07:01.813Z,20.00
2022-07-29T20:09:28.849Z,19.90
2022-07-29T20:11:55.591Z,19.90
2022-07-29T20:14:22.495Z,19.80
2022-07-29T20:16:49.686Z,19.80
2022-07-29T20:19:16.637Z,19.80
2022-07-29T20:21:43.435Z,19.80
2022-07-29T20:24:10.474Z,19.80
2022-07-29T20:26:37.285Z,19.70
2022-07-29T20:29:05.336Z,19.70
2022-07-29T20:31:32.434Z,19.70
2022-07-29T20:34:00.113Z,19.60
2022-07-29T20:36:27.526Z,19.60
2022-07-29T20:38:54.968Z,19.50
2022-07-29T20:41:21.747Z,19.50
2022-07-29T20:43:49.854Z,19.50
2022-07-29T20:46:16.756Z,19.30
2022-07-29T20:48:43.576Z,19.20
2022-07-29T20:51:10.668Z,19.10
2022-07-29T20:53:38.350Z,19.00
2022-07-29T20:56:05.351Z,18.90
2022-07-29T20:58:33.978Z,18.90
2022-07-29T21:01:01.207Z,18.80
2022-07-29T21:03:27.913Z,18.80
2022-07-29T21:05:54.614Z,18.70
2022-07-29T21:08:21.449Z,18.60
2022-07-29T21:10:48.591Z,18.50
2022-07-29T21:13:15.289Z,18.60
2022-07-29T21:15:45.510Z,18.50
2022-07-29T21:18:32.584Z,18.50
2022-07-29T21:21:00.225Z,18.50
2022-07-29T21:23:27.336Z,18.50
2022-07-29T21:25:54.181Z,18.50
2022-07-29T21:28:26.828Z,18.50
2022-07-29T21:30:54.527Z,18.50
2022-07-29T21:33:21.264Z,18.50
2022-07-29T21:38:35.201Z,18.40
2022-07-29T21:41:02.205Z,18.40
2022-07-29T21:43:28.954Z,18.30
2022-07-29T21:45:56.637Z,18.30
2022-07-29T21:48:23.912Z,18.20
2022-07-29T21:50:50.899Z,18.10
2022-07-29T21:53:17.950Z,18.00
2022-07-29T21:55:50.583Z,17.90
2022-07-29T21:58:18.031Z,17.90
2022-07-29T22:00:45.114Z,17.80
2022-07-29T22:03:11.828Z,17.60
2022-07-29T22:05:38.563Z,17.60
2022-07-29T22:08:05.412Z,17.60
2022-07-29T22:10:32.168Z,17.60
2022-07-29T22:12:59.602Z,17.50
2022-07-29T22:15:26.536Z,17.60
2022-07-29T22:17:53.398Z,17.40
2022-07-29T22:20:20.363Z,17.40
2022-07-29T22:22:47.048Z,17.30
2022-07-29T22:25:13.710Z,17.30
2022-07-29T22:27:40.345Z,17.30
2022-07-29T22:30:07.449Z,17.30
2022-07-29T22:32:34.098Z,17.20
2022-07-29T22:35:00.790Z,17.10
2022-07-29T22:37:27.470Z,17.00
2022-07-29T22:39:54.138Z,16.90
2022-07-29T22:42:21.128Z,16.90
2022-07-29T22:44:47.959Z,16.80
2022-07-29T22:47:14.625Z,16.90
2022-07-29T22:49:41.281Z,16.80
2022-07-29T22:52:09.073Z,16.80
2022-07-29T22:54:35.914Z,16.80
2022-07-29T22:57:03.084Z,16.80
2022-07-29T22:59:29.863Z,16.70
2022-07-29T23:01:56.580Z,16.70
2022-07-29T23:04:23.794Z,16.70
2022-07-29T23:06:51.078Z,16.60
2022-07-29T23:09:17.799Z,16.70
2022-07-29T23:11:44.654Z,16.60
2022-07-29T23:14:11.314Z,16.60
2022-07-29T23:16:38.021Z,16.50
2022-07-29T23:19:04.751Z,16.50
2022-07-29T23:21:31.505Z,16.40
2022-07-29T23:23:58.157Z,16.40
2022-07-29T23:26:25.050Z,16.30
2022-07-29T23:28:51.697Z,16.30
2022-07-29T23:31:18.931Z,16.30
2022-07-29T23:33:45.685Z,16.20
2022-07-29T23:36:12.404Z,16.20
2022-07-29T23:38:40.877Z,16.20
2022-07-29T23:41:09.609Z,16.20
2022-07-29T23:43:39.171Z,16.20
2022-07-29T23:46:06.396Z,16.10
2022-07-29T23:48:34.128Z,16.00
2022-07-29T23:51:01.160Z,15.90
2022-07-29T23:53:28.304Z,15.90
2022-07-29T23:55:55.756Z,15.90
2022-07-29T23:58:22.527Z,15.90
